| time (UTC) | temp F | wind direction | speed knots | gust knots | rain 1hr in | rain 24hr in | rain mn in | humidity % | barometer mb |
| 20260505101114 | 48 | 20 | 0.0 | 0.0 | 0.00 | 0.02 | 0.02 | 77 | 1010.0 |
| 20260505100614 | 48 | 20 | 0.9 | 1.7 | 0.00 | 0.02 | 0.02 | 75 | 1009.9 |
| 20260505100114 | 48 | 21 | 0.9 | 2.6 | 0.00 | 0.02 | 0.02 | 73 | 1009.9 |
| 20260505095614 | 48 | 23 | 0.9 | 2.6 | 0.00 | 0.02 | 0.02 | 75 | 1009.8 |
| 20260505095114 | 48 | 28 | 0.9 | 1.7 | 0.00 | 0.02 | 0.02 | 76 | 1009.8 |
| 20260505094614 | 48 | 0 | 0.9 | 3.5 | 0.00 | 0.02 | 0.02 | 76 | 1009.9 |
| 20260505094114 | 48 | 30 | 0.9 | 0.0 | 0.00 | 0.02 | 0.02 | 77 | 1009.8 |
| 20260505093614 | 48 | 24 | 0.9 | 2.6 | 0.00 | 0.02 | 0.02 | 78 | 1009.9 |
| 20260505093114 | 48 | 28 | 0.9 | 2.6 | 0.00 | 0.02 | 0.02 | 78 | 1009.7 |
| 20260505092614 | 48 | 28 | 0.9 | 1.7 | 0.00 | 0.02 | 0.02 | 79 | 1009.6 |
| 20260505092114 | 48 | 28 | 0.9 | 2.6 | 0.00 | 0.02 | 0.02 | 79 | 1009.7 |
| 20260505091614 | 48 | 34 | 0.0 | 1.7 | 0.00 | 0.02 | 0.02 | 80 | 1009.6 |
| 20260505091114 | 48 | 27 | 0.0 | 0.9 | 0.00 | 0.02 | 0.02 | 80 | 1009.5 |
| 20260505090614 | 47 | 27 | 0.0 | 0.9 | 0.00 | 0.02 | 0.02 | 81 | 1009.5 |
| 20260505090114 | 47 | 27 | 0.9 | 1.7 | 0.00 | 0.02 | 0.02 | 80 | 1009.6 |
| 20260505085614 | 47 | 27 | 0.0 | 2.6 | 0.00 | 0.02 | 0.02 | 81 | 1009.6 |
| 20260505085114 | 47 | 27 | 0.0 | 0.9 | 0.00 | 0.02 | 0.02 | 81 | 1009.6 |
| 20260505084614 | 47 | 27 | 0.9 | 2.6 | 0.00 | 0.02 | 0.02 | 80 | 1009.8 |
| 20260505084114 | 47 | 39 | 0.9 | 1.7 | 0.00 | 0.02 | 0.02 | 81 | 1009.8 |
| 20260505083614 | 47 | 44 | 0.9 | 2.6 | 0.00 | 0.02 | 0.02 | 82 | 1009.8 |
| 20260505083114 | 47 | 47 | 0.0 | 0.0 | 0.00 | 0.02 | 0.02 | 84 | 1009.8 |
| 20260505082614 | 47 | 47 | 0.0 | 0.0 | 0.00 | 0.02 | 0.02 | 84 | 1009.8 |
| 20260505082114 | 47 | 47 | 0.0 | 0.0 | 0.00 | 0.02 | 0.02 | 83 | 1009.8 |
| 20260505081614 | 47 | 47 | 0.0 | 0.0 | 0.00 | 0.02 | 0.02 | 82 | 1009.9 |
| 20260505081114 | 47 | 47 | 0.0 | 0.0 | 0.00 | 0.02 | 0.02 | 82 | 1009.9 |
| 20260505080614 | 48 | 47 | 0.0 | 0.0 | 0.01 | 0.02 | 0.02 | 81 | 1009.9 |
| 20260505080114 | 48 | 46 | 0.0 | 0.0 | 0.01 | 0.02 | 0.02 | 83 | 1009.9 |
| 20260505075614 | 48 | 47 | 0.0 | 0.0 | 0.01 | 0.02 | 0.02 | 84 | 1009.8 |
| 20260505075114 | 48 | 47 | 0.0 | 0.0 | 0.02 | 0.02 | 0.02 | 83 | 1009.9 |
| 20260505074614 | 48 | 47 | 0.0 | 0.0 | 0.02 | 0.02 | 0.02 | 83 | 1010.0 |
| 20260505074114 | 48 | 47 | 0.0 | 0.0 | 0.02 | 0.02 | 0.02 | 81 | 1010.1 |
| 20260505073614 | 49 | 47 | 0.0 | 1.7 | 0.02 | 0.02 | 0.02 | 80 | 1010.0 |
| 20260505073114 | 48 | 47 | 0.0 | 0.9 | 0.02 | 0.02 | 0.02 | 79 | 1010.0 |
| 20260505072614 | 48 | 47 | 0.0 | 0.0 | 0.02 | 0.02 | 0.02 | 79 | 1009.9 |
| 20260505072114 | 49 | 47 | 0.0 | 0.0 | 0.02 | 0.02 | 0.02 | 80 | 1009.8 |
| 20260505071614 | 49 | 47 | 0.0 | 0.0 | 0.02 | 0.02 | 0.02 | 77 | 1009.9 |
| 20260505071114 | 49 | 36 | 0.0 | 0.9 | 0.02 | 0.02 | 0.02 | 76 | 1009.8 |
| 20260505070614 | 49 | 36 | 0.0 | 1.7 | 0.01 | 0.01 | 0.01 | 75 | 1009.7 |
| 20260505070114 | 50 | 36 | 0.0 | 0.9 | 0.01 | 0.01 | 0.01 | 75 | 1009.8 |
| 20260505065614 | 50 | 36 | 0.9 | 1.7 | 0.01 | 0.01 | 0.01 | 75 | 1009.8 |
| 20260505065114 | 50 | 36 | 0.9 | 1.7 | 0.00 | 0.00 | 0.00 | 70 | 1010.1 |
| 20260505064614 | 51 | 36 | 1.7 | 2.6 | 0.00 | 0.00 | 0.00 | 68 | 1010.1 |
| 20260505064114 | 51 | 11 | 1.7 | 3.5 | 0.00 | 0.00 | 0.00 | 65 | 1010.2 |
| 20260505063614 | 51 | 62 | 1.7 | 4.3 | 0.00 | 0.00 | 0.00 | 63 | 1010.3 |
| 20260505063114 | 51 | 20 | 1.7 | 4.3 | 0.00 | 0.00 | 0.00 | 62 | 1010.3 |
| 20260505062614 | 51 | 69 | 1.7 | 2.6 | 0.00 | 0.00 | 0.00 | 63 | 1010.2 |
| 20260505062114 | 51 | 9 | 2.6 | 4.3 | 0.00 | 0.00 | 0.00 | 61 | 1010.1 |
| 20260505061614 | 51 | 22 | 2.6 | 4.3 | 0.00 | 0.00 | 0.00 | 60 | 1010.0 |
| 20260505061114 | 51 | 38 | 2.6 | 5.2 | 0.00 | 0.00 | 0.00 | 60 | 1009.9 |
| 20260505060614 | 51 | 82 | 3.5 | 5.2 | 0.00 | 0.00 | 0.00 | 59 | 1009.9 |
| 20260505060114 | 51 | 67 | 3.5 | 9.6 | 0.00 | 0.00 | 0.00 | 59 | 1009.7 |
| 20260505055614 | 51 | 36 | 4.3 | 9.6 | 0.00 | 0.00 | 0.00 | 59 | 1009.7 |
| 20260505055114 | 51 | 55 | 4.3 | 8.7 | 0.00 | 0.00 | 0.00 | 59 | 1009.7 |
| 20260505054614 | 52 | 82 | 3.5 | 8.7 | 0.00 | 0.00 | 0.00 | 59 | 1009.6 |
| 20260505054114 | 52 | 43 | 3.5 | 7.8 | 0.00 | 0.00 | 0.00 | 58 | 1009.8 |
| 20260505053614 | 52 | 49 | 3.5 | 7.8 | 0.00 | 0.00 | 0.00 | 58 | 1009.8 |
| 20260505053114 | 52 | 57 | 3.5 | 7.8 | 0.00 | 0.00 | 0.00 | 58 | 1010.0 |
| 20260505052614 | 52 | 88 | 2.6 | 5.2 | 0.00 | 0.00 | 0.00 | 57 | 1010.2 |
| 20260505052114 | 52 | 57 | 3.5 | 8.7 | 0.00 | 0.00 | 0.00 | 57 | 1009.9 |
| 20260505051614 | 52 | 17 | 3.5 | 8.7 | 0.00 | 0.00 | 0.00 | 56 | 1009.9 |
| 20260505051114 | 53 | 39 | 3.5 | 7.8 | 0.00 | 0.00 | 0.00 | 56 | 1010.0 |
| 20260505050614 | 53 | 347 | 2.6 | 7.0 | 0.00 | 0.00 | 0.00 | 56 | 1010.0 |
| 20260505050114 | 53 | 51 | 3.5 | 7.0 | 0.00 | 0.00 | 0.00 | 54 | 1010.0 |
| 20260505041614 | 55 | 36 | 7.0 | 14.8 | 0.00 | 0.00 | 0.00 | 48 | 1009.0 |
| 20260505041114 | 55 | 30 | 7.0 | 15.6 | 0.00 | 0.00 | 0.00 | 47 | 1008.9 |
| 20260505040614 | 55 | 54 | 7.0 | 13.0 | 0.00 | 0.00 | 0.00 | 46 | 1008.8 |
| 20260505040114 | 56 | 332 | 6.1 | 18.2 | 0.00 | 0.00 | 0.00 | 45 | 1009.1 |
| 20260505035614 | 56 | 29 | 5.2 | 11.3 | 0.00 | 0.00 | 0.00 | 46 | 1009.6 |
| 20260505035114 | 56 | 24 | 5.2 | 10.4 | 0.00 | 0.00 | 0.00 | 46 | 1009.6 |
| 20260505034614 | 56 | 40 | 6.1 | 16.5 | 0.00 | 0.00 | 0.00 | 46 | 1009.5 |
| 20260505034114 | 56 | 36 | 7.8 | 16.5 | 0.00 | 0.00 | 0.00 | 45 | 1009.6 |
| 20260505033614 | 56 | 67 | 7.8 | 15.6 | 0.00 | 0.00 | 0.00 | 45 | 1009.3 |
| 20260505033114 | 56 | 0 | 7.0 | 16.5 | 0.00 | 0.00 | 0.00 | 45 | 1009.1 |
| 20260505032614 | 56 | 71 | 7.0 | 16.5 | 0.00 | 0.00 | 0.00 | 44 | 1009.3 |
| 20260505032114 | 57 | 26 | 6.1 | 13.0 | 0.00 | 0.00 | 0.00 | 44 | 1008.9 |
| 20260505031614 | 57 | 85 | 6.1 | 15.6 | 0.00 | 0.00 | 0.00 | 45 | 1009.0 |
| 20260505031114 | 57 | 15 | 5.2 | 13.9 | 0.00 | 0.00 | 0.00 | 44 | 1009.0 |
| 20260505030614 | 57 | 44 | 5.2 | 11.3 | 0.00 | 0.00 | 0.00 | 44 | 1008.7 |
| 20260505030114 | 57 | 83 | 6.1 | 13.9 | 0.00 | 0.00 | 0.00 | 44 | 1008.9 |
| 20260505025614 | 57 | 61 | 7.8 | 14.8 | 0.00 | 0.00 | 0.00 | 44 | 1008.2 |
| 20260505025114 | 57 | 57 | 7.8 | 16.5 | 0.00 | 0.00 | 0.00 | 44 | 1007.6 |
| 20260505024614 | 57 | 53 | 6.1 | 13.0 | 0.00 | 0.00 | 0.00 | 44 | 1008.2 |
| 20260505024114 | 58 | 84 | 5.2 | 13.9 | 0.00 | 0.00 | 0.00 | 45 | 1008.5 |
| 20260505023614 | 58 | 43 | 6.1 | 12.2 | 0.00 | 0.00 | 0.00 | 45 | 1008.4 |
| 20260505023114 | 58 | 341 | 7.8 | 13.9 | 0.00 | 0.00 | 0.00 | 45 | 1007.9 |
| 20260505022614 | 58 | 40 | 8.7 | 18.2 | 0.00 | 0.00 | 0.00 | 44 | 1007.5 |
| 20260505022115 | 58 | 58 | 8.7 | 21.7 | 0.00 | 0.00 | 0.00 | 44 | 1007.4 |
| 20260505021614 | 59 | 90 | 8.7 | 17.4 | 0.00 | 0.00 | 0.00 | 43 | 1007.2 |
| 20260505021115 | 59 | 31 | 8.7 | 16.5 | 0.00 | 0.00 | 0.00 | 43 | 1007.2 |
| 20260505020615 | 59 | 68 | 8.7 | 17.4 | 0.00 | 0.00 | 0.00 | 42 | 1007.0 |
| 20260505020115 | 60 | 5 | 8.7 | 19.1 | 0.00 | 0.00 | 0.00 | 41 | 1006.9 |
| 20260505015615 | 61 | 69 | 7.8 | 22.6 | 0.00 | 0.00 | 0.00 | 40 | 1007.0 |
| 20260505015115 | 61 | 44 | 6.1 | 14.8 | 0.00 | 0.00 | 0.00 | 39 | 1006.5 |
| 20260505014615 | 62 | 0 | 6.1 | 13.0 | 0.00 | 0.00 | 0.00 | 39 | 1006.2 |
| 20260505014115 | 62 | 43 | 7.0 | 13.9 | 0.00 | 0.00 | 0.00 | 39 | 1006.3 |
| 20260505013615 | 62 | 333 | 7.8 | 16.5 | 0.00 | 0.00 | 0.00 | 38 | 1006.0 |
| 20260505013115 | 62 | 73 | 7.8 | 15.6 | 0.00 | 0.00 | 0.00 | 38 | 1005.8 |
| 20260505012615 | 62 | 43 | 7.8 | 15.6 | 0.00 | 0.00 | 0.00 | 38 | 1005.7 |
| 20260505012115 | 63 | 59 | 8.7 | 15.6 | 0.00 | 0.00 | 0.00 | 37 | 1005.6 |
| 20260505011615 | 64 | 69 | 8.7 | 18.2 | 0.00 | 0.00 | 0.00 | 36 | 1005.5 |
| 20260505011115 | 64 | 116 | 7.8 | 16.5 | 0.00 | 0.00 | 0.00 | 35 | 1005.1 |
| 20260505010615 | 65 | 47 | 7.8 | 17.4 | 0.00 | 0.00 | 0.00 | 35 | 1005.1 |
| 20260505010115 | 65 | 347 | 6.1 | 15.6 | 0.00 | 0.00 | 0.00 | 36 | 1004.9 |
| 20260505005615 | 66 | 22 | 5.2 | 7.8 | 0.00 | 0.00 | 0.00 | 36 | 1004.8 |
| 20260505005115 | 66 | 102 | 6.1 | 11.3 | 0.00 | 0.00 | 0.00 | 35 | 1004.8 |
| 20260505004615 | 66 | 38 | 7.0 | 11.3 | 0.00 | 0.00 | 0.00 | 35 | 1004.6 |
| 20260505004115 | 67 | 24 | 7.0 | 15.6 | 0.00 | 0.00 | 0.00 | 34 | 1004.6 |
| 20260505003615 | 67 | 65 | 6.1 | 12.2 | 0.00 | 0.00 | 0.00 | 35 | 1004.6 |
| 20260505003115 | 67 | 61 | 5.2 | 11.3 | 0.00 | 0.00 | 0.00 | 35 | 1004.2 |
| 20260505002615 | 67 | 28 | 7.0 | 13.0 | 0.00 | 0.00 | 0.00 | 35 | 1004.4 |
| 20260505002115 | 67 | 51 | 7.0 | 15.6 | 0.00 | 0.00 | 0.00 | 35 | 1004.4 |
| 20260505001615 | 68 | 90 | 7.8 | 14.8 | 0.00 | 0.00 | 0.00 | 34 | 1004.3 |
| 20260505001115 | 68 | 10 | 8.7 | 16.5 | 0.00 | 0.00 | 0.00 | 34 | 1004.4 |
| 20260505000615 | 68 | 17 | 7.8 | 17.4 | 0.00 | 0.00 | 0.00 | 33 | 1004.3 |
| 20260505000115 | 69 | 67 | 8.7 | 17.4 | 0.00 | 0.00 | 0.00 | 34 | 1004.2 |
| 20260504235615 | 69 | 355 | 8.7 | 13.9 | 0.00 | 0.00 | 0.00 | 33 | 1004.3 |
| 20260504235115 | 69 | 29 | 8.7 | 17.4 | 0.00 | 0.00 | 0.00 | 33 | 1004.2 |
| 20260504234615 | 69 | 27 | 7.0 | 19.1 | 0.00 | 0.00 | 0.00 | 33 | 1004.1 |
| 20260504234115 | 69 | 36 | 7.0 | 13.0 | 0.00 | 0.00 | 0.00 | 33 | 1004.4 |
| 20260504233615 | 69 | 97 | 6.1 | 15.6 | 0.00 | 0.00 | 0.00 | 33 | 1004.3 |
| 20260504233115 | 69 | 53 | 6.1 | 11.3 | 0.00 | 0.00 | 0.00 | 33 | 1004.2 |
| 20260504232615 | 70 | 44 | 7.0 | 13.0 | 0.00 | 0.00 | 0.00 | 32 | 1004.1 |
| 20260504232115 | 70 | 333 | 6.1 | 13.9 | 0.00 | 0.00 | 0.00 | 32 | 1004.1 |
| 20260504231615 | 70 | 5 | 7.0 | 13.9 | 0.00 | 0.00 | 0.00 | 32 | 1004.0 |
| 20260504231115 | 70 | 37 | 7.0 | 13.9 | 0.00 | 0.00 | 0.00 | 31 | 1003.8 |
| 20260504230615 | 70 | 40 | 7.0 | 15.6 | 0.00 | 0.00 | 0.00 | 31 | 1003.7 |
| 20260504230115 | 71 | 321 | 7.0 | 16.5 | 0.00 | 0.00 | 0.00 | 31 | 1003.6 |
| 20260504225615 | 71 | 65 | 7.0 | 17.4 | 0.00 | 0.00 | 0.00 | 30 | 1003.8 |
| 20260504225115 | 71 | 26 | 7.0 | 15.6 | 0.00 | 0.00 | 0.00 | 30 | 1004.0 |
| 20260504224615 | 71 | 37 | 6.1 | 13.9 | 0.00 | 0.00 | 0.00 | 30 | 1003.9 |
| 20260504224115 | 72 | 30 | 6.1 | 13.9 | 0.00 | 0.00 | 0.00 | 30 | 1003.7 |
| 20260504223615 | 72 | 32 | 5.2 | 11.3 | 0.00 | 0.00 | 0.00 | 30 | 1003.7 |
| 20260504223115 | 72 | 16 | 6.1 | 13.0 | 0.00 | 0.00 | 0.00 | 30 | 1003.7 |
| 20260504222615 | 72 | 62 | 7.0 | 14.8 | 0.00 | 0.00 | 0.00 | 30 | 1003.6 |
| 20260504222115 | 72 | 67 | 7.8 | 17.4 | 0.00 | 0.00 | 0.00 | 29 | 1003.6 |
| 20260504221615 | 72 | 39 | 6.1 | 19.1 | 0.00 | 0.00 | 0.00 | 29 | 1003.5 |
| 20260504221115 | 73 | 20 | 5.2 | 12.2 | 0.00 | 0.00 | 0.00 | 30 | 1003.5 |
| 20260504220615 | 73 | 37 | 6.1 | 13.9 | 0.00 | 0.00 | 0.00 | 28 | 1003.3 |
| 20260504220115 | 73 | 49 | 7.0 | 14.8 | 0.00 | 0.00 | 0.00 | 29 | 1003.1 |
| 20260504215615 | 73 | 15 | 7.0 | 13.0 | 0.00 | 0.00 | 0.00 | 28 | 1003.4 |
| 20260504215115 | 74 | 59 | 7.0 | 16.5 | 0.00 | 0.00 | 0.00 | 28 | 1003.4 |
| 20260504214615 | 74 | 30 | 7.0 | 14.8 | 0.00 | 0.00 | 0.00 | 29 | 1003.4 |
| 20260504214115 | 75 | 25 | 6.1 | 10.4 | 0.00 | 0.00 | 0.00 | 29 | 1003.4 |
| 20260504213615 | 75 | 52 | 6.1 | 13.9 | 0.00 | 0.00 | 0.00 | 29 | 1003.3 |
| 20260504213115 | 76 | 36 | 5.2 | 11.3 | 0.00 | 0.00 | 0.00 | 29 | 1003.5 |
| 20260504212615 | 76 | 41 | 5.2 | 10.4 | 0.00 | 0.00 | 0.00 | 30 | 1003.2 |
| 20260504212115 | 75 | 112 | 7.8 | 13.0 | 0.00 | 0.00 | 0.00 | 31 | 1003.2 |
| 20260504211615 | 75 | 5 | 7.0 | 13.0 | 0.00 | 0.00 | 0.00 | 31 | 1003.1 |
| 20260504211115 | 75 | 78 | 5.2 | 15.6 | 0.00 | 0.00 | 0.00 | 33 | 1003.1 |
| 20260504210615 | 75 | 13 | 4.3 | 10.4 | 0.00 | 0.00 | 0.00 | 33 | 1003.3 |
| 20260504210115 | 75 | 13 | 5.2 | 11.3 | 0.00 | 0.00 | 0.00 | 33 | 1003.3 |
| 20260504205615 | 75 | 5 | 6.1 | 11.3 | 0.00 | 0.00 | 0.00 | 33 | 1003.2 |
| 20260504205115 | 75 | 355 | 5.2 | 11.3 | 0.00 | 0.00 | 0.00 | 32 | 1003.0 |
| 20260504204615 | 75 | 9 | 6.1 | 9.6 | 0.00 | 0.00 | 0.00 | 33 | 1003.2 |
| 20260504204115 | 76 | 55 | 6.1 | 16.5 | 0.00 | 0.00 | 0.00 | 33 | 1002.9 |
| 20260504203615 | 76 | 53 | 5.2 | 11.3 | 0.00 | 0.00 | 0.00 | 34 | 1003.0 |
| 20260504203115 | 76 | 340 | 5.2 | 10.4 | 0.00 | 0.00 | 0.00 | 33 | 1003.0 |
| 20260504202615 | 77 | 21 | 5.2 | 14.8 | 0.00 | 0.00 | 0.00 | 32 | 1002.9 |
| 20260504202115 | 77 | 27 | 5.2 | 9.6 | 0.00 | 0.00 | 0.00 | 33 | 1002.7 |
| 20260504201615 | 77 | 28 | 5.2 | 9.6 | 0.00 | 0.00 | 0.00 | 34 | 1002.7 |
| 20260504201115 | 77 | 317 | 6.1 | 10.4 | 0.00 | 0.00 | 0.00 | 34 | 1002.8 |
| 20260504200615 | 77 | 41 | 6.1 | 13.0 | 0.00 | 0.00 | 0.00 | 32 | 1003.0 |
| 20260504200115 | 77 | 61 | 5.2 | 12.2 | 0.00 | 0.00 | 0.00 | 32 | 1002.9 |
| 20260504195615 | 77 | 44 | 5.2 | 12.2 | 0.00 | 0.00 | 0.00 | 32 | 1002.9 |
| 20260504195115 | 78 | 22 | 6.1 | 13.0 | 0.00 | 0.00 | 0.00 | 32 | 1002.7 |
| 20260504194615 | 79 | 55 | 6.1 | 12.2 | 0.00 | 0.00 | 0.00 | 30 | 1002.5 |
| 20260504194115 | 79 | 19 | 5.2 | 12.2 | 0.00 | 0.00 | 0.00 | 30 | 1002.5 |
| 20260504193615 | 79 | 55 | 5.2 | 10.4 | 0.00 | 0.00 | 0.00 | 31 | 1002.4 |
| 20260504193115 | 80 | 26 | 5.2 | 11.3 | 0.00 | 0.00 | 0.00 | 30 | 1002.5 |
| 20260504192615 | 79 | 355 | 6.1 | 11.3 | 0.00 | 0.00 | 0.00 | 29 | 1002.4 |
| 20260504192115 | 80 | 355 | 6.1 | 13.0 | 0.00 | 0.00 | 0.00 | 29 | 1002.4 |
| 20260504191616 | 80 | 38 | 6.1 | 13.0 | 0.00 | 0.00 | 0.00 | 30 | 1002.6 |
| 20260504191115 | 80 | 319 | 5.2 | 13.0 | 0.00 | 0.00 | 0.00 | 29 | 1002.6 |
| 20260504190615 | 80 | 5 | 4.3 | 13.0 | 0.00 | 0.00 | 0.00 | 30 | 1002.6 |
| 20260504190115 | 80 | 94 | 4.3 | 9.6 | 0.00 | 0.00 | 0.00 | 29 | 1002.5 |
| 20260504185615 | 80 | 86 | 5.2 | 13.9 | 0.00 | 0.00 | 0.00 | 1002.5 | |
| 20260504185115 | 80 | 68 | 6.1 | 11.3 | 0.00 | 0.00 | 0.00 | 29 | 1002.5 |
| 20260504184615 | 81 | 63 | 5.2 | 12.2 | 0.00 | 0.00 | 0.00 | 28 | 1002.5 |
| 20260504184115 | 81 | 38 | 5.2 | 12.2 | 0.00 | 0.00 | 0.00 | 26 | 1002.4 |
| 20260504183615 | 81 | 316 | 4.3 | 10.4 | 0.00 | 0.00 | 0.00 | 27 | 1002.5 |
| 20260504183115 | 80 | 24 | 3.5 | 9.6 | 0.00 | 0.00 | 0.00 | 25 | 1002.4 |
| 20260504182615 | 80 | 286 | 2.6 | 7.0 | 0.00 | 0.00 | 0.00 | 22 | 1002.3 |
| 20260504182115 | 80 | 350 | 2.6 | 5.2 | 0.00 | 0.00 | 0.00 | 23 | 1002.4 |
| 20260504181615 | 81 | 327 | 2.6 | 7.0 | 0.00 | 0.00 | 0.00 | 24 | 1002.5 |
| 20260504181115 | 80 | 319 | 2.6 | 7.0 | 0.00 | 0.00 | 0.00 | 26 | 1002.6 |
| 20260504180616 | 80 | 273 | 3.5 | 7.0 | 0.00 | 0.00 | 0.00 | 24 | 1002.6 |
| 20260504180116 | 80 | 346 | 3.5 | 11.3 | 0.00 | 0.00 | 0.00 | 24 | 1002.7 |
| 20260504175616 | 80 | 336 | 3.5 | 9.6 | 0.00 | 0.00 | 0.00 | 23 | 1002.4 |
| 20260504175116 | 80 | 335 | 4.3 | 13.0 | 0.00 | 0.00 | 0.00 | 21 | 1002.6 |
| 20260504174616 | 80 | 0 | 3.5 | 9.6 | 0.00 | 0.00 | 0.00 | 21 | 1002.7 |
| 20260504174116 | 80 | 278 | 3.5 | 9.6 | 0.00 | 0.00 | 0.00 | 23 | 1002.7 |
| 20260504173616 | 80 | 313 | 3.5 | 10.4 | 0.00 | 0.00 | 0.00 | 22 | 1002.8 |
| 20260504173116 | 80 | 355 | 4.3 | 9.6 | 0.00 | 0.00 | 0.00 | 20 | 1002.7 |
| 20260504172616 | 80 | 248 | 3.5 | 13.0 | 0.00 | 0.00 | 0.00 | 21 | 1002.9 |
| 20260504172116 | 80 | 346 | 2.6 | 7.8 | 0.00 | 0.00 | 0.00 | 21 | 1002.8 |
| 20260504171616 | 79 | 310 | 3.5 | 7.8 | 0.00 | 0.00 | 0.00 | 21 | 1002.8 |
| 20260504171116 | 79 | 321 | 3.5 | 10.4 | 0.00 | 0.00 | 0.00 | 21 | 1002.9 |
| 20260504170616 | 79 | 273 | 3.5 | 12.2 | 0.00 | 0.00 | 0.00 | 23 | 1002.9 |
| 20260504170116 | 79 | 71 | 3.5 | 7.0 | 0.00 | 0.00 | 0.00 | 26 | 1002.9 |
| 20260504160116 | 74 | 258 | 1.7 | 6.1 | 0.00 | 0.00 | 0.00 | 35 | 1003.2 |
| 20260504151116 | 69 | 307 | 1.7 | 3.5 | 0.00 | 0.00 | 0.00 | 41 | 1003.5 |
| 20260504150616 | 69 | 263 | 1.7 | 5.2 | 0.00 | 0.00 | 0.00 | 41 | 1003.6 |
| 20260504150116 | 68 | 321 | 1.7 | 3.5 | 0.00 | 0.00 | 0.00 | 41 | 1003.6 |
| 20260504141116 | 63 | 296 | 0.9 | 2.6 | 0.00 | 0.00 | 0.00 | 49 | 1003.9 |
| 20260504140616 | 62 | 277 | 1.7 | 2.6 | 0.00 | 0.00 | 0.00 | 50 | 1003.9 |
| 20260504140116 | 61 | 300 | 1.7 | 3.5 | 0.00 | 0.00 | 0.00 | 50 | 1003.8 |
| 20260504130616 | 55 | 348 | 0.9 | 3.5 | 0.00 | 0.00 | 0.00 | 59 | 1003.7 |
| 20260504130116 | 55 | 331 | 0.9 | 1.7 | 0.00 | 0.00 | 0.00 | 60 | 1003.7 |
| 20260504120116 | 49 | 170 | 0.9 | 1.7 | 0.00 | 0.00 | 0.00 | 66 | 1003.3 |
| 20260504110616 | 49 | 167 | 0.0 | 0.0 | 0.00 | 0.00 | 0.00 | 67 | 1002.9 |
| 20260504110116 | 49 | 167 | 0.0 | 0.0 | 0.00 | 0.00 | 0.00 | 67 | 1003.0 |